sensor_id;sensor_type;location;lat;lon;timestamp;temperature;humidity
46139;DHT22;32398;49.112;8.598;2022-10-12T00:00:38;14.90;87.90
46139;DHT22;32398;49.112;8.598;2022-10-12T00:03:05;14.90;87.90
46139;DHT22;32398;49.112;8.598;2022-10-12T00:05:31;14.80;87.90
46139;DHT22;32398;49.112;8.598;2022-10-12T00:07:58;14.80;87.90
46139;DHT22;32398;49.112;8.598;2022-10-12T00:10:26;14.80;87.90
46139;DHT22;32398;49.112;8.598;2022-10-12T00:12:52;14.80;88.00
46139;DHT22;32398;49.112;8.598;2022-10-12T00:15:19;14.70;88.00
46139;DHT22;32398;49.112;8.598;2022-10-12T00:17:46;14.70;88.00
46139;DHT22;32398;49.112;8.598;2022-10-12T00:20:12;14.70;88.10
46139;DHT22;32398;49.112;8.598;2022-10-12T00:22:39;14.60;88.00
46139;DHT22;32398;49.112;8.598;2022-10-12T00:25:05;14.60;88.10
46139;DHT22;32398;49.112;8.598;2022-10-12T00:27:33;14.60;88.10
46139;DHT22;32398;49.112;8.598;2022-10-12T00:30:00;14.60;88.20
46139;DHT22;32398;49.112;8.598;2022-10-12T00:32:27;14.60;88.20
46139;DHT22;32398;49.112;8.598;2022-10-12T00:34:53;14.50;88.20
46139;DHT22;32398;49.112;8.598;2022-10-12T00:37:20;14.50;88.10
46139;DHT22;32398;49.112;8.598;2022-10-12T00:39:47;14.50;88.10
46139;DHT22;32398;49.112;8.598;2022-10-12T00:42:13;14.50;88.10
46139;DHT22;32398;49.112;8.598;2022-10-12T00:44:42;14.50;88.20
46139;DHT22;32398;49.112;8.598;2022-10-12T00:47:12;14.40;88.10
46139;DHT22;32398;49.112;8.598;2022-10-12T00:49:41;14.40;88.30
46139;DHT22;32398;49.112;8.598;2022-10-12T00:52:09;14.40;88.40
46139;DHT22;32398;49.112;8.598;2022-10-12T00:54:39;14.40;88.40
46139;DHT22;32398;49.112;8.598;2022-10-12T00:57:08;14.30;88.40
46139;DHT22;32398;49.112;8.598;2022-10-12T00:59:35;14.30;88.40
46139;DHT22;32398;49.112;8.598;2022-10-12T01:02:06;14.30;88.50
46139;DHT22;32398;49.112;8.598;2022-10-12T01:04:33;14.30;88.40
46139;DHT22;32398;49.112;8.598;2022-10-12T01:06:59;14.30;88.50
46139;DHT22;32398;49.112;8.598;2022-10-12T01:09:26;14.30;88.50
46139;DHT22;32398;49.112;8.598;2022-10-12T01:11:53;14.20;88.50
46139;DHT22;32398;49.112;8.598;2022-10-12T01:14:21;14.20;88.50
46139;DHT22;32398;49.112;8.598;2022-10-12T01:16:49;14.20;89.30
46139;DHT22;32398;49.112;8.598;2022-10-12T01:19:22;14.20;88.60
46139;DHT22;32398;49.112;8.598;2022-10-12T01:21:54;14.20;88.70
46139;DHT22;32398;49.112;8.598;2022-10-12T01:24:27;14.20;88.80
46139;DHT22;32398;49.112;8.598;2022-10-12T01:29:56;14.10;88.80
46139;DHT22;32398;49.112;8.598;2022-10-12T01:32:27;14.10;88.80
46139;DHT22;32398;49.112;8.598;2022-10-12T01:34:56;14.10;88.80
46139;DHT22;32398;49.112;8.598;2022-10-12T01:37:26;14.10;88.80
46139;DHT22;32398;49.112;8.598;2022-10-12T01:39:56;14.00;88.80
46139;DHT22;32398;49.112;8.598;2022-10-12T01:42:27;14.00;88.80
46139;DHT22;32398;49.112;8.598;2022-10-12T01:45:02;14.00;88.90
46139;DHT22;32398;49.112;8.598;2022-10-12T01:47:29;14.00;88.90
46139;DHT22;32398;49.112;8.598;2022-10-12T01:49:56;14.00;88.90
46139;DHT22;32398;49.112;8.598;2022-10-12T01:52:25;13.90;88.90
46139;DHT22;32398;49.112;8.598;2022-10-12T01:54:55;13.90;89.00
46139;DHT22;32398;49.112;8.598;2022-10-12T01:57:27;13.90;89.00
46139;DHT22;32398;49.112;8.598;2022-10-12T01:59:58;13.90;89.00
46139;DHT22;32398;49.112;8.598;2022-10-12T02:02:29;13.80;89.00
46139;DHT22;32398;49.112;8.598;2022-10-12T02:05:01;13.80;89.00
46139;DHT22;32398;49.112;8.598;2022-10-12T02:07:33;13.80;89.10
46139;DHT22;32398;49.112;8.598;2022-10-12T02:10:03;13.80;89.10
46139;DHT22;32398;49.112;8.598;2022-10-12T02:12:30;13.70;89.10
46139;DHT22;32398;49.112;8.598;2022-10-12T02:14:59;13.70;89.80
46139;DHT22;32398;49.112;8.598;2022-10-12T02:17:28;13.70;89.10
46139;DHT22;32398;49.112;8.598;2022-10-12T02:19:56;13.70;89.20
46139;DHT22;32398;49.112;8.598;2022-10-12T02:22:23;13.70;89.20
46139;DHT22;32398;49.112;8.598;2022-10-12T02:24:51;13.60;89.20
46139;DHT22;32398;49.112;8.598;2022-10-12T02:27:19;13.60;89.30
46139;DHT22;32398;49.112;8.598;2022-10-12T02:29:46;13.60;89.30
46139;DHT22;32398;49.112;8.598;2022-10-12T02:32:15;13.60;89.30
46139;DHT22;32398;49.112;8.598;2022-10-12T02:34:44;13.60;89.40
46139;DHT22;32398;49.112;8.598;2022-10-12T02:37:15;13.60;89.40
46139;DHT22;32398;49.112;8.598;2022-10-12T02:39:47;13.60;89.40
46139;DHT22;32398;49.112;8.598;2022-10-12T02:42:16;13.50;90.00
46139;DHT22;32398;49.112;8.598;2022-10-12T02:44:44;13.50;89.40
46139;DHT22;32398;49.112;8.598;2022-10-12T02:47:11;13.50;89.40
46139;DHT22;32398;49.112;8.598;2022-10-12T02:49:39;13.50;89.40
46139;DHT22;32398;49.112;8.598;2022-10-12T02:52:08;13.50;89.40
46139;DHT22;32398;49.112;8.598;2022-10-12T02:54:35;13.50;89.50
46139;DHT22;32398;49.112;8.598;2022-10-12T02:57:01;13.40;89.40
46139;DHT22;32398;49.112;8.598;2022-10-12T02:59:28;13.40;89.40
46139;DHT22;32398;49.112;8.598;2022-10-12T03:01:54;13.40;89.40
46139;DHT22;32398;49.112;8.598;2022-10-12T03:04:21;13.40;89.40
46139;DHT22;32398;49.112;8.598;2022-10-12T03:06:48;13.40;89.40
46139;DHT22;32398;49.112;8.598;2022-10-12T03:09:15;13.30;89.40
46139;DHT22;32398;49.112;8.598;2022-10-12T03:11:43;13.30;89.40
46139;DHT22;32398;49.112;8.598;2022-10-12T03:14:09;13.30;89.60
46139;DHT22;32398;49.112;8.598;2022-10-12T03:16:36;13.30;89.60
46139;DHT22;32398;49.112;8.598;2022-10-12T03:19:03;13.30;89.60
46139;DHT22;32398;49.112;8.598;2022-10-12T03:21:29;13.30;89.60
46139;DHT22;32398;49.112;8.598;2022-10-12T03:23:56;13.30;89.70
46139;DHT22;32398;49.112;8.598;2022-10-12T03:26:24;13.20;89.70
46139;DHT22;32398;49.112;8.598;2022-10-12T03:28:50;13.30;89.80
46139;DHT22;32398;49.112;8.598;2022-10-12T03:31:17;13.20;89.70
46139;DHT22;32398;49.112;8.598;2022-10-12T03:33:43;13.20;89.70
46139;DHT22;32398;49.112;8.598;2022-10-12T03:36:10;13.20;89.70
46139;DHT22;32398;49.112;8.598;2022-10-12T03:38:36;13.20;89.80
46139;DHT22;32398;49.112;8.598;2022-10-12T03:41:03;13.10;89.70
46139;DHT22;32398;49.112;8.598;2022-10-12T03:43:31;13.10;89.80
46139;DHT22;32398;49.112;8.598;2022-10-12T03:45:58;13.20;89.90
46139;DHT22;32398;49.112;8.598;2022-10-12T03:48:24;13.20;89.90
46139;DHT22;32398;49.112;8.598;2022-10-12T03:50:51;13.10;89.90
46139;DHT22;32398;49.112;8.598;2022-10-12T03:53:18;13.10;89.90
46139;DHT22;32398;49.112;8.598;2022-10-12T03:55:45;13.10;90.00
46139;DHT22;32398;49.112;8.598;2022-10-12T03:58:11;13.10;90.00
46139;DHT22;32398;49.112;8.598;2022-10-12T04:00:40;13.10;90.00
46139;DHT22;32398;49.112;8.598;2022-10-12T04:03:06;13.10;90.00
46139;DHT22;32398;49.112;8.598;2022-10-12T04:05:33;13.00;90.00
46139;DHT22;32398;49.112;8.598;2022-10-12T04:07:59;13.10;90.00
46139;DHT22;32398;49.112;8.598;2022-10-12T04:10:26;13.00;90.00
46139;DHT22;32398;49.112;8.598;2022-10-12T04:12:53;13.00;90.40
46139;DHT22;32398;49.112;8.598;2022-10-12T04:15:19;13.00;90.00
46139;DHT22;32398;49.112;8.598;2022-10-12T04:17:47;13.00;90.00
46139;DHT22;32398;49.112;8.598;2022-10-12T04:20:14;12.90;90.10
46139;DHT22;32398;49.112;8.598;2022-10-12T04:22:40;13.00;90.10
46139;DHT22;32398;49.112;8.598;2022-10-12T04:25:08;12.90;90.10
46139;DHT22;32398;49.112;8.598;2022-10-12T04:27:35;13.00;90.10
46139;DHT22;32398;49.112;8.598;2022-10-12T04:30:01;12.90;90.10
46139;DHT22;32398;49.112;8.598;2022-10-12T04:32:29;12.90;90.10
46139;DHT22;32398;49.112;8.598;2022-10-12T04:34:57;13.00;90.20
46139;DHT22;32398;49.112;8.598;2022-10-12T04:37:25;13.00;90.20
46139;DHT22;32398;49.112;8.598;2022-10-12T04:39:51;12.90;90.20
46139;DHT22;32398;49.112;8.598;2022-10-12T04:42:18;12.90;90.20
46139;DHT22;32398;49.112;8.598;2022-10-12T04:44:44;12.90;90.20
46139;DHT22;32398;49.112;8.598;2022-10-12T04:47:11;12.90;90.20
46139;DHT22;32398;49.112;8.598;2022-10-12T04:49:37;12.90;90.20
46139;DHT22;32398;49.112;8.598;2022-10-12T04:52:05;12.90;90.30
46139;DHT22;32398;49.112;8.598;2022-10-12T04:54:32;12.90;90.30
46139;DHT22;32398;49.112;8.598;2022-10-12T04:56:58;12.80;90.20
46139;DHT22;32398;49.112;8.598;2022-10-12T04:59:25;12.70;90.20
46139;DHT22;32398;49.112;8.598;2022-10-12T05:01:52;12.70;90.80
46139;DHT22;32398;49.112;8.598;2022-10-12T05:04:19;12.60;90.90
46139;DHT22;32398;49.112;8.598;2022-10-12T05:06:46;12.60;91.00
46139;DHT22;32398;49.112;8.598;2022-10-12T05:09:13;12.60;91.10
46139;DHT22;32398;49.112;8.598;2022-10-12T05:11:40;12.50;91.10
46139;DHT22;32398;49.112;8.598;2022-10-12T05:14:07;12.60;91.10
46139;DHT22;32398;49.112;8.598;2022-10-12T05:16:34;12.60;91.10
46139;DHT22;32398;49.112;8.598;2022-10-12T05:19:00;12.60;91.00
46139;DHT22;32398;49.112;8.598;2022-10-12T05:21:27;12.60;91.00
46139;DHT22;32398;49.112;8.598;2022-10-12T05:23:53;12.60;91.00
46139;DHT22;32398;49.112;8.598;2022-10-12T05:26:21;12.50;91.00
46139;DHT22;32398;49.112;8.598;2022-10-12T05:28:48;12.60;91.00
46139;DHT22;32398;49.112;8.598;2022-10-12T05:31:14;12.50;91.00
46139;DHT22;32398;49.112;8.598;2022-10-12T05:33:41;12.60;91.00
46139;DHT22;32398;49.112;8.598;2022-10-12T05:36:07;12.60;91.00
46139;DHT22;32398;49.112;8.598;2022-10-12T05:38:34;12.60;91.00
46139;DHT22;32398;49.112;8.598;2022-10-12T05:41:00;12.50;90.90
46139;DHT22;32398;49.112;8.598;2022-10-12T05:43:28;12.50;91.00
46139;DHT22;32398;49.112;8.598;2022-10-12T05:45:55;12.50;91.00
46139;DHT22;32398;49.112;8.598;2022-10-12T05:48:22;12.50;90.90
46139;DHT22;32398;49.112;8.598;2022-10-12T05:50:50;12.50;90.90
46139;DHT22;32398;49.112;8.598;2022-10-12T05:53:17;12.50;91.00
46139;DHT22;32398;49.112;8.598;2022-10-12T05:55:50;12.50;91.00
46139;DHT22;32398;49.112;8.598;2022-10-12T05:58:16;12.50;91.00
46139;DHT22;32398;49.112;8.598;2022-10-12T06:00:44;12.50;91.00
46139;DHT22;32398;49.112;8.598;2022-10-12T06:03:11;12.50;91.30
46139;DHT22;32398;49.112;8.598;2022-10-12T06:05:37;12.40;90.90
46139;DHT22;32398;49.112;8.598;2022-10-12T06:08:04;12.50;91.00
46139;DHT22;32398;49.112;8.598;2022-10-12T06:10:31;12.40;90.90
46139;DHT22;32398;49.112;8.598;2022-10-12T06:12:58;12.40;91.00
46139;DHT22;32398;49.112;8.598;2022-10-12T06:15:24;12.50;91.00
46139;DHT22;32398;49.112;8.598;2022-10-12T06:17:52;12.40;91.00
46139;DHT22;32398;49.112;8.598;2022-10-12T06:20:19;12.50;91.00
46139;DHT22;32398;49.112;8.598;2022-10-12T06:22:46;12.40;91.00
46139;DHT22;32398;49.112;8.598;2022-10-12T06:25:12;12.40;91.00
46139;DHT22;32398;49.112;8.598;2022-10-12T06:27:39;12.40;91.00
46139;DHT22;32398;49.112;8.598;2022-10-12T06:30:06;12.40;91.00
46139;DHT22;32398;49.112;8.598;2022-10-12T06:32:32;12.40;91.00
46139;DHT22;32398;49.112;8.598;2022-10-12T06:35:01;12.40;91.00
46139;DHT22;32398;49.112;8.598;2022-10-12T06:37:27;12.40;91.00
46139;DHT22;32398;49.112;8.598;2022-10-12T06:39:54;12.40;91.10
46139;DHT22;32398;49.112;8.598;2022-10-12T06:42:22;12.40;91.00
46139;DHT22;32398;49.112;8.598;2022-10-12T06:44:48;12.40;91.10
46139;DHT22;32398;49.112;8.598;2022-10-12T06:47:15;12.40;91.10
46139;DHT22;32398;49.112;8.598;2022-10-12T06:49:41;12.40;91.10
46139;DHT22;32398;49.112;8.598;2022-10-12T06:52:09;12.50;91.50
46139;DHT22;32398;49.112;8.598;2022-10-12T06:54:36;12.40;91.10
46139;DHT22;32398;49.112;8.598;2022-10-12T06:57:03;12.40;91.10
46139;DHT22;32398;49.112;8.598;2022-10-12T06:59:30;12.40;91.10
46139;DHT22;32398;49.112;8.598;2022-10-12T07:01:56;12.40;91.10
46139;DHT22;32398;49.112;8.598;2022-10-12T07:04:23;12.40;91.10
46139;DHT22;32398;49.112;8.598;2022-10-12T07:06:50;12.40;91.10
46139;DHT22;32398;49.112;8.598;2022-10-12T07:09:17;12.40;91.10
46139;DHT22;32398;49.112;8.598;2022-10-12T07:11:44;12.50;91.10
46139;DHT22;32398;49.112;8.598;2022-10-12T07:14:11;12.40;91.10
46139;DHT22;32398;49.112;8.598;2022-10-12T07:16:37;12.50;91.10
46139;DHT22;32398;49.112;8.598;2022-10-12T07:19:04;12.40;91.10
46139;DHT22;32398;49.112;8.598;2022-10-12T07:21:30;12.50;91.10
46139;DHT22;32398;49.112;8.598;2022-10-12T07:23:57;12.50;91.10
46139;DHT22;32398;49.112;8.598;2022-10-12T07:26:25;12.50;91.10
46139;DHT22;32398;49.112;8.598;2022-10-12T07:28:51;12.50;91.10
46139;DHT22;32398;49.112;8.598;2022-10-12T07:31:18;12.50;91.10
46139;DHT22;32398;49.112;8.598;2022-10-12T07:33:44;12.50;91.10
46139;DHT22;32398;49.112;8.598;2022-10-12T07:36:11;12.50;91.10
46139;DHT22;32398;49.112;8.598;2022-10-12T07:38:38;12.50;91.10
46139;DHT22;32398;49.112;8.598;2022-10-12T07:41:04;12.60;91.10
46139;DHT22;32398;49.112;8.598;2022-10-12T07:43:32;12.50;91.00
46139;DHT22;32398;49.112;8.598;2022-10-12T07:45:59;12.50;91.00
46139;DHT22;32398;49.112;8.598;2022-10-12T07:48:25;12.50;91.00
46139;DHT22;32398;49.112;8.598;2022-10-12T07:50:52;12.50;91.00
46139;DHT22;32398;49.112;8.598;2022-10-12T07:53:19;12.50;91.00
46139;DHT22;32398;49.112;8.598;2022-10-12T07:55:45;12.60;91.00
46139;DHT22;32398;49.112;8.598;2022-10-12T07:58:12;12.60;91.20
46139;DHT22;32398;49.112;8.598;2022-10-12T08:00:40;12.60;91.00
46139;DHT22;32398;49.112;8.598;2022-10-12T08:03:07;12.60;90.90
46139;DHT22;32398;49.112;8.598;2022-10-12T08:05:34;12.60;90.90
46139;DHT22;32398;49.112;8.598;2022-10-12T08:08:02;12.60;90.90
46139;DHT22;32398;49.112;8.598;2022-10-12T08:10:29;12.60;90.90
46139;DHT22;32398;49.112;8.598;2022-10-12T08:12:55;12.60;90.80
46139;DHT22;32398;49.112;8.598;2022-10-12T08:15:22;12.70;90.90
46139;DHT22;32398;49.112;8.598;2022-10-12T08:17:50;12.70;90.90
46139;DHT22;32398;49.112;8.598;2022-10-12T08:20:16;12.70;90.90
46139;DHT22;32398;49.112;8.598;2022-10-12T08:22:43;12.70;90.80
46139;DHT22;32398;49.112;8.598;2022-10-12T08:25:09;12.70;90.80
46139;DHT22;32398;49.112;8.598;2022-10-12T08:27:36;12.70;90.80
46139;DHT22;32398;49.112;8.598;2022-10-12T08:30:03;12.70;90.80
46139;DHT22;32398;49.112;8.598;2022-10-12T08:32:30;12.80;90.80
46139;DHT22;32398;49.112;8.598;2022-10-12T08:34:58;12.80;90.80
46139;DHT22;32398;49.112;8.598;2022-10-12T08:37:24;12.80;90.70
46139;DHT22;32398;49.112;8.598;2022-10-12T08:39:51;12.80;90.70
46139;DHT22;32398;49.112;8.598;2022-10-12T08:42:22;12.80;90.60
46139;DHT22;32398;49.112;8.598;2022-10-12T08:44:56;12.80;90.60
46139;DHT22;32398;49.112;8.598;2022-10-12T08:47:26;12.80;90.60
46139;DHT22;32398;49.112;8.598;2022-10-12T08:49:54;12.90;90.70
46139;DHT22;32398;49.112;8.598;2022-10-12T08:52:23;12.90;90.70
46139;DHT22;32398;49.112;8.598;2022-10-12T08:54:52;12.90;90.70
46139;DHT22;32398;49.112;8.598;2022-10-12T08:57:21;12.90;90.70
46139;DHT22;32398;49.112;8.598;2022-10-12T08:59:47;12.90;90.70
46139;DHT22;32398;49.112;8.598;2022-10-12T09:02:20;12.90;90.60
46139;DHT22;32398;49.112;8.598;2022-10-12T09:04:52;12.90;90.60
46139;DHT22;32398;49.112;8.598;2022-10-12T09:07:22;13.00;90.60
46139;DHT22;32398;49.112;8.598;2022-10-12T09:09:56;13.00;90.60
46139;DHT22;32398;49.112;8.598;2022-10-12T09:12:32;13.00;90.60
46139;DHT22;32398;49.112;8.598;2022-10-12T09:15:04;13.10;90.60
46139;DHT22;32398;49.112;8.598;2022-10-12T09:17:34;13.10;90.50
46139;DHT22;32398;49.112;8.598;2022-10-12T09:20:03;13.10;90.50
46139;DHT22;32398;49.112;8.598;2022-10-12T09:22:32;13.10;90.50
46139;DHT22;32398;49.112;8.598;2022-10-12T09:25:00;13.20;90.50
46139;DHT22;32398;49.112;8.598;2022-10-12T09:27:29;13.20;90.40
46139;DHT22;32398;49.112;8.598;2022-10-12T09:29:56;13.20;90.40
46139;DHT22;32398;49.112;8.598;2022-10-12T09:32:33;13.20;90.30
46139;DHT22;32398;49.112;8.598;2022-10-12T09:35:01;13.20;90.30
46139;DHT22;32398;49.112;8.598;2022-10-12T09:37:29;13.20;90.30
46139;DHT22;32398;49.112;8.598;2022-10-12T09:39:57;13.30;90.30
46139;DHT22;32398;49.112;8.598;2022-10-12T09:42:25;13.30;90.30
46139;DHT22;32398;49.112;8.598;2022-10-12T09:44:54;13.30;90.20
46139;DHT22;32398;49.112;8.598;2022-10-12T09:47:22;13.30;90.20
46139;DHT22;32398;49.112;8.598;2022-10-12T09:49:51;13.40;90.20
46139;DHT22;32398;49.112;8.598;2022-10-12T09:52:19;13.40;90.20
46139;DHT22;32398;49.112;8.598;2022-10-12T09:54:47;13.40;90.10
46139;DHT22;32398;49.112;8.598;2022-10-12T09:57:19;13.50;90.10
46139;DHT22;32398;49.112;8.598;2022-10-12T09:59:47;13.50;90.00
46139;DHT22;32398;49.112;8.598;2022-10-12T10:02:14;13.50;90.00
46139;DHT22;32398;49.112;8.598;2022-10-12T10:04:41;13.60;90.00
46139;DHT22;32398;49.112;8.598;2022-10-12T10:07:16;13.60;89.90
46139;DHT22;32398;49.112;8.598;2022-10-12T10:09:43;13.70;89.90
46139;DHT22;32398;49.112;8.598;2022-10-12T10:12:12;13.70;89.70
46139;DHT22;32398;49.112;8.598;2022-10-12T10:14:40;13.80;90.00
46139;DHT22;32398;49.112;8.598;2022-10-12T10:17:09;13.80;89.80
46139;DHT22;32398;49.112;8.598;2022-10-12T10:19:39;13.80;89.70
46139;DHT22;32398;49.112;8.598;2022-10-12T10:22:05;13.90;89.60
46139;DHT22;32398;49.112;8.598;2022-10-12T10:24:32;13.90;89.70
46139;DHT22;32398;49.112;8.598;2022-10-12T10:27:00;14.00;89.70
46139;DHT22;32398;49.112;8.598;2022-10-12T10:29:34;14.10;89.30
46139;DHT22;32398;49.112;8.598;2022-10-12T10:32:14;14.10;89.00
46139;DHT22;32398;49.112;8.598;2022-10-12T10:34:58;14.20;89.00
46139;DHT22;32398;49.112;8.598;2022-10-12T10:37:25;14.30;88.80
46139;DHT22;32398;49.112;8.598;2022-10-12T10:39:53;14.30;88.70
46139;DHT22;32398;49.112;8.598;2022-10-12T10:42:21;14.40;88.80
46139;DHT22;32398;49.112;8.598;2022-10-12T10:44:51;14.50;88.70
46139;DHT22;32398;49.112;8.598;2022-10-12T10:47:19;14.60;87.90
46139;DHT22;32398;49.112;8.598;2022-10-12T10:49:46;14.60;87.90
46139;DHT22;32398;49.112;8.598;2022-10-12T10:52:18;14.70;87.60
46139;DHT22;32398;49.112;8.598;2022-10-12T10:54:46;14.90;86.70
46139;DHT22;32398;49.112;8.598;2022-10-12T10:57:15;14.90;86.50
46139;DHT22;32398;49.112;8.598;2022-10-12T10:59:44;15.00;86.30
46139;DHT22;32398;49.112;8.598;2022-10-12T11:02:29;15.10;86.20
46139;DHT22;32398;49.112;8.598;2022-10-12T11:04:58;15.10;86.00
46139;DHT22;32398;49.112;8.598;2022-10-12T11:07:28;15.20;85.60
46139;DHT22;32398;49.112;8.598;2022-10-12T11:09:56;15.30;85.20
46139;DHT22;32398;49.112;8.598;2022-10-12T11:12:24;15.40;85.30
46139;DHT22;32398;49.112;8.598;2022-10-12T11:14:52;15.40;85.50
46139;DHT22;32398;49.112;8.598;2022-10-12T11:17:21;15.40;84.90
46139;DHT22;32398;49.112;8.598;2022-10-12T11:19:52;15.50;85.00
46139;DHT22;32398;49.112;8.598;2022-10-12T11:22:21;15.60;85.30
46139;DHT22;32398;49.112;8.598;2022-10-12T11:24:49;15.60;84.50
46139;DHT22;32398;49.112;8.598;2022-10-12T11:27:19;15.70;84.60
46139;DHT22;32398;49.112;8.598;2022-10-12T11:29:47;15.70;84.80
46139;DHT22;32398;49.112;8.598;2022-10-12T11:32:17;15.70;84.90
46139;DHT22;32398;49.112;8.598;2022-10-12T11:34:48;15.80;84.70
46139;DHT22;32398;49.112;8.598;2022-10-12T11:37:19;15.90;84.60
46139;DHT22;32398;49.112;8.598;2022-10-12T11:39:46;15.90;84.60
46139;DHT22;32398;49.112;8.598;2022-10-12T11:42:16;16.00;84.10
46139;DHT22;32398;49.112;8.598;2022-10-12T11:44:45;16.00;83.80
46139;DHT22;32398;49.112;8.598;2022-10-12T11:47:13;16.10;83.70
46139;DHT22;32398;49.112;8.598;2022-10-12T11:49:45;16.20;83.60
46139;DHT22;32398;49.112;8.598;2022-10-12T11:52:13;16.20;83.60
46139;DHT22;32398;49.112;8.598;2022-10-12T11:54:42;16.30;83.60
46139;DHT22;32398;49.112;8.598;2022-10-12T11:57:13;16.30;83.30
46139;DHT22;32398;49.112;8.598;2022-10-12T11:59:42;16.40;83.00
46139;DHT22;32398;49.112;8.598;2022-10-12T12:02:12;16.40;82.90
46139;DHT22;32398;49.112;8.598;2022-10-12T12:04:41;16.50;83.80
46139;DHT22;32398;49.112;8.598;2022-10-12T12:09:52;16.60;82.60
46139;DHT22;32398;49.112;8.598;2022-10-12T12:12:20;16.70;83.00
46139;DHT22;32398;49.112;8.598;2022-10-12T12:17:34;16.70;82.80
46139;DHT22;32398;49.112;8.598;2022-10-12T12:20:03;16.80;82.70
46139;DHT22;32398;49.112;8.598;2022-10-12T12:22:46;16.70;82.30
46139;DHT22;32398;49.112;8.598;2022-10-12T12:25:18;16.80;82.80
46139;DHT22;32398;49.112;8.598;2022-10-12T12:27:46;16.80;82.80
46139;DHT22;32398;49.112;8.598;2022-10-12T12:30:20;16.80;82.60
46139;DHT22;32398;49.112;8.598;2022-10-12T12:32:49;16.80;82.60
46139;DHT22;32398;49.112;8.598;2022-10-12T12:35:17;16.90;82.60
46139;DHT22;32398;49.112;8.598;2022-10-12T12:37:44;17.00;82.20
46139;DHT22;32398;49.112;8.598;2022-10-12T12:40:17;17.00;81.90
46139;DHT22;32398;49.112;8.598;2022-10-12T12:42:46;17.00;81.80
46139;DHT22;32398;49.112;8.598;2022-10-12T12:47:57;17.20;81.60
46139;DHT22;32398;49.112;8.598;2022-10-12T12:50:31;17.30;81.60
46139;DHT22;32398;49.112;8.598;2022-10-12T12:53:01;17.30;81.20
46139;DHT22;32398;49.112;8.598;2022-10-12T12:55:35;17.40;80.70
46139;DHT22;32398;49.112;8.598;2022-10-12T12:58:23;17.50;81.00
46139;DHT22;32398;49.112;8.598;2022-10-12T13:00:57;17.50;81.10
46139;DHT22;32398;49.112;8.598;2022-10-12T13:03:35;17.50;81.00
46139;DHT22;32398;49.112;8.598;2022-10-12T13:06:21;17.60;81.00
46139;DHT22;32398;49.112;8.598;2022-10-12T13:08:59;17.60;80.90
46139;DHT22;32398;49.112;8.598;2022-10-12T13:11:38;17.60;80.80
46139;DHT22;32398;49.112;8.598;2022-10-12T13:14:12;17.70;80.70
46139;DHT22;32398;49.112;8.598;2022-10-12T13:16:50;17.70;80.80
46139;DHT22;32398;49.112;8.598;2022-10-12T13:19:21;17.70;80.90
46139;DHT22;32398;49.112;8.598;2022-10-12T13:21:49;17.70;81.00
46139;DHT22;32398;49.112;8.598;2022-10-12T13:24:18;17.70;80.50
46139;DHT22;32398;49.112;8.598;2022-10-12T13:26:47;17.80;80.70
46139;DHT22;32398;49.112;8.598;2022-10-12T13:29:15;17.80;80.60
46139;DHT22;32398;49.112;8.598;2022-10-12T13:31:44;17.90;80.20
46139;DHT22;32398;49.112;8.598;2022-10-12T13:34:14;17.90;80.30
46139;DHT22;32398;49.112;8.598;2022-10-12T13:36:46;17.90;80.50
46139;DHT22;32398;49.112;8.598;2022-10-12T13:39:15;18.00;80.50
46139;DHT22;32398;49.112;8.598;2022-10-12T13:41:42;18.00;80.20
46139;DHT22;32398;49.112;8.598;2022-10-12T13:44:17;18.00;80.30
46139;DHT22;32398;49.112;8.598;2022-10-12T13:46:45;18.00;80.10
46139;DHT22;32398;49.112;8.598;2022-10-12T13:49:13;18.00;79.90
46139;DHT22;32398;49.112;8.598;2022-10-12T13:51:40;18.00;80.00
46139;DHT22;32398;49.112;8.598;2022-10-12T13:54:17;18.00;80.10
46139;DHT22;32398;49.112;8.598;2022-10-12T13:56:44;18.00;80.50
46139;DHT22;32398;49.112;8.598;2022-10-12T13:59:14;18.00;80.60
46139;DHT22;32398;49.112;8.598;2022-10-12T14:01:46;17.90;80.70
46139;DHT22;32398;49.112;8.598;2022-10-12T14:04:13;17.90;80.80
46139;DHT22;32398;49.112;8.598;2022-10-12T14:06:39;17.90;81.00
46139;DHT22;32398;49.112;8.598;2022-10-12T14:09:06;17.90;81.00
46139;DHT22;32398;49.112;8.598;2022-10-12T14:11:33;17.90;81.30
46139;DHT22;32398;49.112;8.598;2022-10-12T14:14:00;17.80;81.30
46139;DHT22;32398;49.112;8.598;2022-10-12T14:16:29;17.80;81.50
46139;DHT22;32398;49.112;8.598;2022-10-12T14:18:55;17.90;81.60
46139;DHT22;32398;49.112;8.598;2022-10-12T14:21:43;17.80;81.60
46139;DHT22;32398;49.112;8.598;2022-10-12T14:24:13;17.80;81.70
46139;DHT22;32398;49.112;8.598;2022-10-12T14:26:42;17.80;81.80
46139;DHT22;32398;49.112;8.598;2022-10-12T14:29:24;17.80;81.90
46139;DHT22;32398;49.112;8.598;2022-10-12T14:31:53;17.80;81.50
46139;DHT22;32398;49.112;8.598;2022-10-12T14:34:23;18.00;80.60
46139;DHT22;32398;49.112;8.598;2022-10-12T14:36:59;18.10;80.70
46139;DHT22;32398;49.112;8.598;2022-10-12T14:39:25;18.30;80.70
46139;DHT22;32398;49.112;8.598;2022-10-12T14:41:52;18.40;80.30
46139;DHT22;32398;49.112;8.598;2022-10-12T14:44:20;18.50;79.70
46139;DHT22;32398;49.112;8.598;2022-10-12T14:46:49;18.60;79.30
46139;DHT22;32398;49.112;8.598;2022-10-12T14:49:18;18.80;79.10
46139;DHT22;32398;49.112;8.598;2022-10-12T14:51:45;18.80;78.90
46139;DHT22;32398;49.112;8.598;2022-10-12T14:54:12;18.90;78.60
46139;DHT22;32398;49.112;8.598;2022-10-12T14:56:39;19.00;79.30
46139;DHT22;32398;49.112;8.598;2022-10-12T14:59:06;19.10;78.30
46139;DHT22;32398;49.112;8.598;2022-10-12T15:01:32;19.10;78.30
46139;DHT22;32398;49.112;8.598;2022-10-12T15:03:59;19.20;78.50
46139;DHT22;32398;49.112;8.598;2022-10-12T15:06:27;19.20;78.20
46139;DHT22;32398;49.112;8.598;2022-10-12T15:08:53;19.20;78.10
46139;DHT22;32398;49.112;8.598;2022-10-12T15:11:20;19.20;78.20
46139;DHT22;32398;49.112;8.598;2022-10-12T15:13:46;19.30;78.30
46139;DHT22;32398;49.112;8.598;2022-10-12T15:16:15;19.40;78.50
46139;DHT22;32398;49.112;8.598;2022-10-12T15:18:43;19.30;78.50
46139;DHT22;32398;49.112;8.598;2022-10-12T15:21:09;19.30;78.60
46139;DHT22;32398;49.112;8.598;2022-10-12T15:23:37;19.30;78.60
46139;DHT22;32398;49.112;8.598;2022-10-12T15:26:04;19.30;78.70
46139;DHT22;32398;49.112;8.598;2022-10-12T15:28:31;19.30;78.70
46139;DHT22;32398;49.112;8.598;2022-10-12T15:30:58;19.40;78.70
46139;DHT22;32398;49.112;8.598;2022-10-12T15:33:26;19.30;78.70
46139;DHT22;32398;49.112;8.598;2022-10-12T15:35:53;19.30;78.70
46139;DHT22;32398;49.112;8.598;2022-10-12T15:38:19;19.30;78.70
46139;DHT22;32398;49.112;8.598;2022-10-12T15:40:48;19.40;78.90
46139;DHT22;32398;49.112;8.598;2022-10-12T15:43:16;19.40;78.90
46139;DHT22;32398;49.112;8.598;2022-10-12T15:45:42;19.40;78.80
46139;DHT22;32398;49.112;8.598;2022-10-12T15:48:09;19.40;78.90